createdAt,value
2018-06-20T00:01:07.519Z,635
2018-06-20T00:02:15.406Z,634
2018-06-20T00:03:23.018Z,633
2018-06-20T00:04:30.906Z,636
2018-06-20T00:05:38.801Z,635
2018-06-20T00:06:46.688Z,635
2018-06-20T00:07:54.312Z,643
2018-06-20T00:09:02.195Z,629
2018-06-20T00:10:10.084Z,630
2018-06-20T00:11:17.971Z,626
2018-06-20T00:12:25.856Z,625
2018-06-20T00:13:33.743Z,628
2018-06-20T00:14:41.632Z,625
2018-06-20T00:15:49.525Z,626
2018-06-20T00:16:57.415Z,627
2018-06-20T00:18:05.298Z,626
2018-06-20T00:19:13.192Z,626
2018-06-20T00:20:20.807Z,626
2018-06-20T00:21:28.700Z,622
2018-06-20T00:22:36.305Z,622
2018-06-20T00:23:44.191Z,624
2018-06-20T00:24:52.087Z,625
2018-06-20T00:25:59.975Z,624
2018-06-20T00:27:07.857Z,620
2018-06-20T00:28:15.747Z,621
2018-06-20T00:29:23.634Z,622
2018-06-20T00:30:31.268Z,625
2018-06-20T00:31:39.177Z,621
2018-06-20T00:32:47.065Z,623
2018-06-20T00:33:54.671Z,622
2018-06-20T00:35:02.556Z,623
2018-06-20T00:36:10.170Z,618
2018-06-20T00:37:18.053Z,618
2018-06-20T00:38:25.948Z,619
2018-06-20T00:39:33.839Z,619
2018-06-20T00:40:41.709Z,623
2018-06-20T00:41:49.594Z,622
2018-06-20T00:42:57.477Z,617
2018-06-20T00:44:05.363Z,620
2018-06-20T00:45:13.261Z,620
2018-06-20T00:46:21.143Z,620
2018-06-20T00:47:29.044Z,620
2018-06-20T00:48:36.926Z,619
2018-06-20T00:49:44.817Z,620
2018-06-20T00:50:52.706Z,619
2018-06-20T00:52:00.589Z,617
2018-06-20T00:53:08.478Z,618
2018-06-20T00:54:16.367Z,618
2018-06-20T00:55:24.255Z,621
2018-06-20T00:56:32.139Z,622
2018-06-20T00:57:40.026Z,621
2018-06-20T00:58:47.638Z,618
2018-06-20T00:59:55.528Z,621
2018-06-20T01:01:03.449Z,622
2018-06-20T01:02:11.561Z,620
2018-06-20T01:03:19.166Z,621
2018-06-20T01:04:26.782Z,619
2018-06-20T01:05:34.666Z,621
2018-06-20T01:06:42.279Z,620
2018-06-20T01:07:49.887Z,619
2018-06-20T01:08:57.774Z,621
2018-06-20T01:10:05.658Z,619
2018-06-20T01:11:13.545Z,621
2018-06-20T01:12:21.424Z,620
2018-06-20T01:13:29.036Z,620
2018-06-20T01:14:36.652Z,619
2018-06-20T01:15:44.540Z,622
2018-06-20T01:16:52.432Z,619
2018-06-20T01:18:00.047Z,619
2018-06-20T01:19:07.935Z,618
2018-06-20T01:20:15.822Z,620
2018-06-20T01:21:23.712Z,622
2018-06-20T01:22:31.318Z,618
2018-06-20T01:23:39.213Z,620
2018-06-20T01:24:47.104Z,623
2018-06-20T01:25:54.987Z,616
2018-06-20T01:27:02.874Z,620
2018-06-20T01:28:10.487Z,621
2018-06-20T01:29:18.373Z,618
2018-06-20T01:30:26.260Z,619
2018-06-20T01:31:34.143Z,619
2018-06-20T01:32:42.040Z,619
2018-06-20T01:33:49.643Z,621
2018-06-20T01:34:57.532Z,622
2018-06-20T01:36:05.422Z,623
2018-06-20T01:37:13.022Z,622
2018-06-20T01:38:20.633Z,618
2018-06-20T01:39:28.529Z,619
2018-06-20T01:40:36.411Z,620
2018-06-20T01:41:44.292Z,617
2018-06-20T01:42:52.177Z,620
2018-06-20T01:44:00.060Z,618
2018-06-20T01:45:07.947Z,619
2018-06-20T01:46:15.840Z,616
2018-06-20T01:47:23.728Z,625
2018-06-20T01:48:31.613Z,622
2018-06-20T01:49:39.498Z,616
2018-06-20T01:50:47.390Z,621
2018-06-20T01:51:55.274Z,626
2018-06-20T01:53:03.158Z,618
2018-06-20T01:54:11.046Z,617
2018-06-20T01:55:18.933Z,621
2018-06-20T01:56:26.546Z,620
2018-06-20T01:57:34.437Z,619
2018-06-20T01:58:42.321Z,615
2018-06-20T01:59:50.236Z,617
2018-06-20T02:00:58.120Z,614
2018-06-20T02:02:05.759Z,617
2018-06-20T02:03:13.645Z,618
2018-06-20T02:04:21.532Z,615
2018-06-20T02:05:29.424Z,618
2018-06-20T02:06:37.309Z,618
2018-06-20T02:07:45.195Z,617
2018-06-20T02:08:53.088Z,613
2018-06-20T02:10:00.980Z,615
2018-06-20T02:11:08.866Z,614
2018-06-20T02:12:16.751Z,618
2018-06-20T02:13:24.660Z,616
2018-06-20T02:14:32.546Z,616
2018-06-20T02:15:40.437Z,615
2018-06-20T02:16:48.051Z,617
2018-06-20T02:17:55.939Z,618
2018-06-20T02:19:03.548Z,618
2018-06-20T02:20:11.437Z,618
2018-06-20T02:21:19.054Z,619
2018-06-20T02:22:26.951Z,617
2018-06-20T02:23:34.837Z,617
2018-06-20T02:24:42.719Z,617
2018-06-20T02:25:50.602Z,616
2018-06-20T02:26:58.483Z,617
2018-06-20T02:28:06.109Z,615
2018-06-20T02:29:13.994Z,617
2018-06-20T02:30:21.876Z,617
2018-06-20T02:31:29.781Z,618
2018-06-20T02:32:37.684Z,619
2018-06-20T02:33:45.570Z,620
2018-06-20T02:34:53.457Z,619
2018-06-20T02:36:01.346Z,618
2018-06-20T02:37:09.233Z,622
2018-06-20T02:38:17.121Z,618
2018-06-20T02:39:25.003Z,620
2018-06-20T02:40:32.930Z,619
2018-06-20T02:41:40.815Z,620
2018-06-20T02:42:48.699Z,619
2018-06-20T02:43:56.585Z,617
2018-06-20T02:45:04.473Z,617
2018-06-20T02:46:12.085Z,617
2018-06-20T02:47:19.970Z,617
2018-06-20T02:48:27.858Z,618
2018-06-20T02:49:35.742Z,618
2018-06-20T02:50:43.630Z,619
2018-06-20T02:51:51.517Z,616
2018-06-20T02:52:59.402Z,618
2018-06-20T02:54:07.287Z,618
2018-06-20T02:55:15.175Z,619
2018-06-20T02:56:23.313Z,620
2018-06-20T02:57:31.187Z,618
2018-06-20T02:58:39.075Z,616
2018-06-20T02:59:46.271Z,620
2018-06-20T03:00:54.157Z,619
2018-06-20T03:02:01.783Z,621
2018-06-20T03:03:09.669Z,620
2018-06-20T03:04:17.277Z,619
2018-06-20T03:05:25.163Z,621
2018-06-20T03:06:32.779Z,620
2018-06-20T03:07:40.661Z,622
2018-06-20T03:08:48.549Z,621
2018-06-20T03:09:56.438Z,620
2018-06-20T03:11:04.319Z,621
2018-06-20T03:12:12.213Z,620
2018-06-20T03:13:20.111Z,621
2018-06-20T03:14:27.995Z,620
2018-06-20T03:15:35.925Z,619
2018-06-20T03:16:43.812Z,620
2018-06-20T03:17:51.700Z,620
2018-06-20T03:18:59.591Z,620
2018-06-20T03:20:07.473Z,619
2018-06-20T03:21:15.357Z,620
2018-06-20T03:22:23.238Z,623
2018-06-20T03:23:31.125Z,620
2018-06-20T03:24:39.012Z,621
2018-06-20T03:25:46.896Z,620
2018-06-20T03:26:54.790Z,620
2018-06-20T03:28:02.672Z,620
2018-06-20T03:29:10.560Z,621
2018-06-20T03:30:18.447Z,618
2018-06-20T03:31:26.335Z,617
2018-06-20T03:32:34.225Z,619
2018-06-20T03:33:42.114Z,617
2018-06-20T03:34:50.003Z,620
2018-06-20T03:35:57.890Z,621
2018-06-20T03:37:05.778Z,618
2018-06-20T03:38:13.663Z,617
2018-06-20T03:39:21.547Z,620
2018-06-20T03:40:29.436Z,618
2018-06-20T03:41:37.329Z,618
2018-06-20T03:42:44.933Z,619
2018-06-20T03:43:52.817Z,619
2018-06-20T03:45:00.432Z,620
2018-06-20T03:46:07.767Z,620
2018-06-20T03:47:15.653Z,619
2018-06-20T03:48:23.542Z,621
2018-06-20T03:49:31.436Z,619
2018-06-20T03:50:39.052Z,618
2018-06-20T03:51:46.656Z,617
2018-06-20T03:52:54.540Z,618
2018-06-20T03:54:02.426Z,620
2018-06-20T03:55:10.312Z,619
2018-06-20T03:56:18.201Z,619
2018-06-20T03:57:26.082Z,619
2018-06-20T03:58:33.968Z,616
2018-06-20T03:59:41.856Z,617
2018-06-20T04:00:49.748Z,620
2018-06-20T04:01:57.633Z,619
2018-06-20T04:03:05.527Z,616
2018-06-20T04:04:13.413Z,616
2018-06-20T04:05:21.301Z,617
2018-06-20T04:06:29.193Z,620
2018-06-20T04:07:37.081Z,619
2018-06-20T04:08:44.966Z,614
2018-06-20T04:09:52.858Z,614
2018-06-20T04:11:00.751Z,614
2018-06-20T04:12:08.658Z,616
2018-06-20T04:13:16.272Z,614
2018-06-20T04:14:24.161Z,614
2018-06-20T04:15:32.044Z,616
2018-06-20T04:16:39.937Z,613
2018-06-20T04:17:47.837Z,614
2018-06-20T04:18:55.438Z,616
2018-06-20T04:20:03.333Z,615
2018-06-20T04:21:10.938Z,613
2018-06-20T04:22:18.827Z,613
2018-06-20T04:23:26.711Z,613
2018-06-20T04:24:34.629Z,614
2018-06-20T04:25:42.521Z,612
2018-06-20T04:26:50.405Z,611
2018-06-20T04:27:58.403Z,610
2018-06-20T04:29:06.330Z,611
2018-06-20T04:30:14.213Z,611
2018-06-20T04:31:22.098Z,608
2018-06-20T04:32:29.712Z,609
2018-06-20T04:33:37.598Z,611
2018-06-20T04:34:45.775Z,610
2018-06-20T04:35:53.763Z,611
2018-06-20T04:37:01.892Z,612
2018-06-20T04:38:09.763Z,613
2018-06-20T04:39:17.649Z,612
2018-06-20T04:40:25.263Z,614
2018-06-20T04:41:33.153Z,614
2018-06-20T04:42:40.494Z,613
2018-06-20T04:43:48.381Z,614
2018-06-20T04:44:56.290Z,614
2018-06-20T04:46:04.174Z,615
2018-06-20T04:47:12.060Z,615
2018-06-20T04:48:19.727Z,614
2018-06-20T04:49:27.600Z,616
2018-06-20T04:50:35.495Z,614
2018-06-20T04:51:43.387Z,615
2018-06-20T04:52:51.271Z,615
2018-06-20T04:53:59.180Z,615
2018-06-20T04:55:07.074Z,614
2018-06-20T04:56:14.958Z,614
2018-06-20T04:57:22.846Z,615
2018-06-20T04:58:30.730Z,614
2018-06-20T04:59:38.622Z,616
2018-06-20T05:00:46.506Z,616
2018-06-20T05:01:54.392Z,614
2018-06-20T05:03:02.281Z,612
2018-06-20T05:04:10.188Z,616
2018-06-20T05:05:18.139Z,614
2018-06-20T05:06:26.033Z,610
2018-06-20T05:07:33.915Z,612
2018-06-20T05:08:41.800Z,613
2018-06-20T05:09:49.690Z,614
2018-06-20T05:10:57.593Z,612
2018-06-20T05:12:05.183Z,611
2018-06-20T05:13:13.072Z,612
2018-06-20T05:14:20.965Z,612
2018-06-20T05:15:28.852Z,612
2018-06-20T05:16:36.746Z,613
2018-06-20T05:17:44.632Z,615
2018-06-20T05:18:52.515Z,615
2018-06-20T05:20:00.401Z,616
2018-06-20T05:21:08.293Z,615
2018-06-20T05:22:16.178Z,615
2018-06-20T05:23:24.068Z,615
2018-06-20T05:24:31.947Z,612
2018-06-20T05:25:39.555Z,614
2018-06-20T05:26:47.441Z,614
2018-06-20T05:27:55.334Z,617
2018-06-20T05:29:03.223Z,616
2018-06-20T05:30:10.847Z,616
2018-06-20T05:31:18.736Z,618
2018-06-20T05:32:26.636Z,619
2018-06-20T05:33:34.533Z,619
2018-06-20T05:34:42.423Z,619
2018-06-20T05:35:50.311Z,619
2018-06-20T05:36:58.196Z,618
2018-06-20T05:38:06.082Z,617
2018-06-20T05:39:13.978Z,617
2018-06-20T05:40:21.864Z,618
2018-06-20T05:41:29.755Z,618
2018-06-20T05:42:37.663Z,615
2018-06-20T05:43:45.555Z,614
2018-06-20T05:44:53.447Z,615
2018-06-20T05:46:01.338Z,616
2018-06-20T05:47:09.223Z,617
2018-06-20T05:48:17.113Z,616
2018-06-20T05:49:25.000Z,619
2018-06-20T05:50:32.891Z,617
2018-06-20T05:51:40.780Z,618
2018-06-20T05:52:48.671Z,618
2018-06-20T05:53:56.755Z,618
2018-06-20T05:55:04.520Z,616
2018-06-20T05:56:12.136Z,617
2018-06-20T05:57:20.020Z,617
2018-06-20T05:58:27.909Z,618
2018-06-20T05:59:35.792Z,618
2018-06-20T06:00:43.682Z,615
2018-06-20T06:01:51.571Z,615
2018-06-20T06:02:59.460Z,614
2018-06-20T06:04:07.375Z,615
2018-06-20T06:05:15.503Z,615
2018-06-20T06:06:23.442Z,616
2018-06-20T06:07:31.334Z,615
2018-06-20T06:08:38.943Z,616
2018-06-20T06:09:46.835Z,615
2018-06-20T06:10:54.724Z,615
2018-06-20T06:12:02.764Z,615
2018-06-20T06:13:10.658Z,614
2018-06-20T06:14:18.548Z,615
2018-06-20T06:15:26.443Z,615
2018-06-20T06:16:34.331Z,614
2018-06-20T06:17:42.222Z,615
2018-06-20T06:18:50.112Z,614
2018-06-20T06:19:57.997Z,615
2018-06-20T06:21:05.886Z,614
2018-06-20T06:22:13.778Z,612
2018-06-20T06:23:21.941Z,613
2018-06-20T06:24:29.961Z,612
2018-06-20T06:25:37.854Z,610
2018-06-20T06:26:45.740Z,611
2018-06-20T06:27:53.628Z,611
2018-06-20T06:29:01.516Z,609
2018-06-20T06:30:09.407Z,610
2018-06-20T06:31:17.293Z,611
2018-06-20T06:32:24.910Z,610
2018-06-20T06:33:32.797Z,610
2018-06-20T06:34:40.685Z,609
2018-06-20T06:35:48.574Z,612
2018-06-20T06:36:56.468Z,611
2018-06-20T06:38:04.357Z,613
2018-06-20T06:39:12.247Z,610
2018-06-20T06:40:20.145Z,612
2018-06-20T06:41:28.034Z,613
2018-06-20T06:42:35.927Z,614
2018-06-20T06:43:43.817Z,614
2018-06-20T06:44:51.708Z,613
2018-06-20T06:45:59.603Z,615
2018-06-20T06:47:07.495Z,613
2018-06-20T06:48:15.382Z,615
2018-06-20T06:49:23.272Z,612
2018-06-20T06:50:31.171Z,616
2018-06-20T06:51:39.284Z,613
2018-06-20T06:52:47.153Z,612
2018-06-20T06:53:54.766Z,613
2018-06-20T06:55:02.661Z,613
2018-06-20T06:56:11.008Z,613
2018-06-20T06:57:18.899Z,612
2018-06-20T06:58:26.241Z,610
2018-06-20T06:59:33.853Z,615
2018-06-20T07:00:41.754Z,612
2018-06-20T07:01:49.643Z,612
2018-06-20T07:02:57.533Z,610
2018-06-20T07:04:05.420Z,611
2018-06-20T07:05:13.312Z,612
2018-06-20T07:06:21.202Z,610
2018-06-20T07:07:29.096Z,610
2018-06-20T07:08:36.984Z,610
2018-06-20T07:09:44.599Z,610
2018-06-20T07:10:52.487Z,609
2018-06-20T07:12:00.378Z,610
2018-06-20T07:13:08.268Z,610
2018-06-20T07:14:16.165Z,609
2018-06-20T07:15:23.792Z,609
2018-06-20T07:16:31.427Z,609
2018-06-20T07:17:39.316Z,608
2018-06-20T07:18:47.220Z,612
2018-06-20T07:19:54.845Z,609
2018-06-20T07:21:02.467Z,608
2018-06-20T07:22:10.120Z,608
2018-06-20T07:23:17.477Z,609
2018-06-20T07:24:25.669Z,611
2018-06-20T07:25:33.710Z,611
2018-06-20T07:26:41.606Z,611
2018-06-20T07:27:49.220Z,610
2018-06-20T07:28:56.829Z,610
2018-06-20T07:30:05.184Z,609
2018-06-20T07:31:13.288Z,607
2018-06-20T07:32:21.179Z,609
2018-06-20T07:33:29.076Z,607
2018-06-20T07:34:36.964Z,611
2018-06-20T07:35:45.160Z,610
2018-06-20T07:36:53.225Z,610
2018-06-20T07:38:01.120Z,609
2018-06-20T07:39:09.012Z,607
2018-06-20T07:40:16.903Z,606
2018-06-20T07:41:24.792Z,607
2018-06-20T07:42:32.416Z,607
2018-06-20T07:43:40.030Z,608
2018-06-20T07:44:47.655Z,607
2018-06-20T07:45:55.544Z,607
2018-06-20T07:47:03.435Z,608
2018-06-20T07:48:11.331Z,606
2018-06-20T07:49:19.224Z,607
2018-06-20T07:50:27.122Z,607
2018-06-20T07:51:34.746Z,604
2018-06-20T07:52:42.633Z,609
2018-06-20T07:53:50.533Z,608
2018-06-20T07:54:58.429Z,608
2018-06-20T07:56:06.320Z,609
2018-06-20T07:57:13.938Z,604
2018-06-20T07:58:21.834Z,607
2018-06-20T07:59:29.754Z,605
2018-06-20T08:00:37.782Z,604
2018-06-20T08:01:45.700Z,601
2018-06-20T08:02:53.593Z,603
2018-06-20T08:04:01.489Z,605
2018-06-20T08:05:09.386Z,605
2018-06-20T08:06:17.018Z,606
2018-06-20T08:07:24.901Z,609
2018-06-20T08:08:32.792Z,609
2018-06-20T08:09:40.683Z,609
2018-06-20T08:10:48.574Z,607
2018-06-20T08:11:56.192Z,604
2018-06-20T08:13:04.079Z,608
2018-06-20T08:14:11.978Z,607
2018-06-20T08:15:19.868Z,608
2018-06-20T08:16:27.766Z,611
2018-06-20T08:17:35.656Z,609
2018-06-20T08:18:43.659Z,608
2018-06-20T08:19:51.547Z,607
2018-06-20T08:20:59.450Z,607
2018-06-20T08:22:07.345Z,606
2018-06-20T08:23:15.246Z,604
2018-06-20T08:24:22.863Z,605
2018-06-20T08:25:30.756Z,606
2018-06-20T08:26:38.651Z,604
2018-06-20T08:27:46.298Z,603
2018-06-20T08:28:54.191Z,603
2018-06-20T08:30:02.082Z,606
2018-06-20T08:31:09.982Z,607
2018-06-20T08:32:17.890Z,608
2018-06-20T08:33:25.784Z,608
2018-06-20T08:34:33.681Z,605
2018-06-20T08:35:41.303Z,606
2018-06-20T08:36:49.195Z,603
2018-06-20T08:37:57.086Z,604
2018-06-20T08:39:04.982Z,603
2018-06-20T08:40:12.878Z,604
2018-06-20T08:41:20.770Z,606
2018-06-20T08:42:28.555Z,608
2018-06-20T08:43:36.475Z,606
2018-06-20T08:44:44.364Z,608
2018-06-20T08:45:51.987Z,607
2018-06-20T08:46:59.612Z,604
2018-06-20T08:48:07.518Z,605
2018-06-20T08:49:15.412Z,606
2018-06-20T08:50:23.308Z,605
2018-06-20T08:51:31.199Z,605
2018-06-20T08:52:39.096Z,605
2018-06-20T08:53:46.994Z,607
2018-06-20T08:54:54.884Z,604
2018-06-20T08:56:02.781Z,604
2018-06-20T08:57:10.673Z,604
2018-06-20T08:58:18.573Z,604
2018-06-20T08:59:26.462Z,602
2018-06-20T09:00:34.088Z,606
2018-06-20T09:01:41.988Z,606
2018-06-20T09:02:49.885Z,610
2018-06-20T09:03:57.777Z,611
2018-06-20T09:05:05.673Z,608
2018-06-20T09:06:13.572Z,608
2018-06-20T09:07:21.466Z,604
2018-06-20T09:08:29.356Z,607
2018-06-20T09:09:37.250Z,607
2018-06-20T09:10:45.143Z,608
2018-06-20T09:11:53.043Z,610
2018-06-20T09:13:01.165Z,610
2018-06-20T09:14:08.783Z,609
2018-06-20T09:15:16.680Z,606
2018-06-20T09:16:24.331Z,603
2018-06-20T09:17:32.230Z,600
2018-06-20T09:18:40.124Z,605
2018-06-20T09:19:48.025Z,609
2018-06-20T09:20:55.951Z,607
2018-06-20T09:22:04.092Z,607
2018-06-20T09:23:12.165Z,604
2018-06-20T09:24:20.064Z,605
2018-06-20T09:25:27.959Z,605
2018-06-20T09:26:35.857Z,604
2018-06-20T09:27:43.753Z,608
2018-06-20T09:28:51.647Z,607
2018-06-20T09:29:59.679Z,603
2018-06-20T09:31:07.598Z,601
2018-06-20T09:32:15.493Z,600
2018-06-20T09:33:23.418Z,598
2018-06-20T09:34:31.320Z,601
2018-06-20T09:35:39.221Z,603
2018-06-20T09:36:47.119Z,601
2018-06-20T09:37:55.028Z,601
2018-06-20T09:39:02.916Z,600
2018-06-20T09:40:12.001Z,600
2018-06-20T09:41:20.112Z,599
2018-06-20T09:42:27.998Z,598
2018-06-20T09:43:35.896Z,598
2018-06-20T09:44:43.946Z,597
2018-06-20T09:45:51.953Z,598
2018-06-20T09:46:59.587Z,598
2018-06-20T09:48:07.488Z,600
2018-06-20T09:49:15.125Z,601
2018-06-20T09:50:22.765Z,598
2018-06-20T09:51:31.427Z,595
2018-06-20T09:52:39.512Z,595
2018-06-20T09:53:47.413Z,594
2018-06-20T09:54:55.037Z,594
2018-06-20T09:56:02.937Z,595
2018-06-20T09:57:10.837Z,597
2018-06-20T09:58:18.738Z,597
2018-06-20T09:59:26.650Z,595
2018-06-20T10:00:34.611Z,590
2018-06-20T10:01:42.534Z,586
2018-06-20T10:02:50.424Z,587
2018-06-20T10:03:58.316Z,590
2018-06-20T10:05:05.956Z,590
2018-06-20T10:06:13.845Z,589
2018-06-20T10:07:21.739Z,595
2018-06-20T10:08:29.631Z,588
2018-06-20T10:09:37.536Z,589
2018-06-20T10:10:45.430Z,596
2018-06-20T10:11:53.323Z,603
2018-06-20T10:13:01.226Z,593
2018-06-20T10:14:09.122Z,593
2018-06-20T10:15:17.016Z,604
2018-06-20T10:16:24.640Z,590
2018-06-20T10:17:32.536Z,587
2018-06-20T10:18:40.435Z,583
2018-06-20T10:19:48.098Z,575
2018-06-20T10:20:55.991Z,572
2018-06-20T10:22:03.892Z,572
2018-06-20T10:23:11.788Z,582
2018-06-20T10:24:19.683Z,590
2018-06-20T10:25:27.577Z,599
2018-06-20T10:26:35.477Z,595
2018-06-20T10:27:43.374Z,591
2018-06-20T10:28:51.267Z,584
2018-06-20T10:29:59.178Z,582
2018-06-20T10:31:07.085Z,582
2018-06-20T10:32:14.986Z,580
2018-06-20T10:33:22.886Z,580
2018-06-20T10:34:33.309Z,577
2018-06-20T10:35:41.350Z,572
2018-06-20T10:36:49.457Z,567
2018-06-20T10:37:58.966Z,567
2018-06-20T10:39:06.589Z,568
2018-06-20T10:40:14.487Z,583
2018-06-20T10:41:22.107Z,574
2018-06-20T10:42:29.738Z,580
2018-06-20T10:43:37.654Z,605
2018-06-20T10:44:45.567Z,606
2018-06-20T10:45:53.480Z,595
2018-06-20T10:47:01.091Z,594
2018-06-20T10:48:08.989Z,592
2018-06-20T10:49:17.002Z,589
2018-06-20T10:50:24.938Z,589
2018-06-20T10:51:32.840Z,586
2018-06-20T10:52:40.738Z,586
2018-06-20T10:53:48.635Z,586
2018-06-20T10:54:56.272Z,582
2018-06-20T10:56:03.910Z,581
2018-06-20T10:57:11.809Z,595
2018-06-20T10:58:19.711Z,600
2018-06-20T10:59:27.621Z,620
2018-06-20T11:00:35.698Z,630
2018-06-20T11:01:43.331Z,610
2018-06-20T11:02:51.227Z,588
2018-06-20T11:03:59.138Z,582
2018-06-20T11:05:07.032Z,592
2018-06-20T11:06:14.925Z,578
2018-06-20T11:07:22.822Z,573
2018-06-20T11:08:30.446Z,572
2018-06-20T11:09:38.168Z,576
2018-06-20T11:10:46.098Z,591
2018-06-20T11:11:53.725Z,588
2018-06-20T11:13:01.346Z,585
2018-06-20T11:14:08.973Z,583
2018-06-20T11:15:16.898Z,583
2018-06-20T11:16:24.851Z,589
2018-06-20T11:17:32.775Z,585
2018-06-20T11:18:40.675Z,582
2018-06-20T11:19:48.303Z,580
2018-06-20T11:20:56.207Z,577
2018-06-20T11:22:04.098Z,576
2018-06-20T11:23:12.096Z,571
2018-06-20T11:24:20.106Z,569
2018-06-20T11:25:28.010Z,570
2018-06-20T11:26:35.921Z,564
2018-06-20T11:27:43.818Z,560
2018-06-20T11:28:51.718Z,557
2018-06-20T11:29:59.622Z,566
2018-06-20T11:31:07.692Z,576
2018-06-20T11:32:15.642Z,582
2018-06-20T11:33:23.275Z,585
2018-06-20T11:34:31.176Z,582
2018-06-20T11:35:38.799Z,579
2018-06-20T11:36:46.702Z,590
2018-06-20T11:37:54.597Z,604
2018-06-20T11:39:02.494Z,602
2018-06-20T11:40:10.118Z,613
2018-06-20T11:41:17.463Z,596
2018-06-20T11:42:25.078Z,596
2018-06-20T11:43:32.978Z,599
2018-06-20T11:44:40.921Z,583
2018-06-20T11:45:48.815Z,579
2018-06-20T11:46:56.723Z,575
2018-06-20T11:48:04.348Z,568
2018-06-20T11:49:12.250Z,562
2018-06-20T11:50:20.163Z,559
2018-06-20T11:51:28.058Z,573
2018-06-20T11:52:35.959Z,587
2018-06-20T11:53:43.854Z,582
2018-06-20T11:54:51.763Z,587
2018-06-20T11:55:59.659Z,587
2018-06-20T11:57:07.558Z,587
2018-06-20T11:58:15.704Z,588
2018-06-20T11:59:24.001Z,598
2018-06-20T12:00:31.898Z,597
2018-06-20T12:01:39.798Z,601
2018-06-20T12:02:47.416Z,593
2018-06-20T12:03:54.957Z,593
2018-06-20T12:05:02.662Z,597
2018-06-20T12:06:10.670Z,598
2018-06-20T12:07:18.377Z,596
2018-06-20T12:08:26.277Z,585
2018-06-20T12:09:34.172Z,579
2018-06-20T12:10:42.071Z,577
2018-06-20T12:11:49.964Z,578
2018-06-20T12:12:57.588Z,576
2018-06-20T12:14:05.486Z,582
2018-06-20T12:15:13.382Z,579
2018-06-20T12:16:21.274Z,573
2018-06-20T12:17:28.624Z,565
2018-06-20T12:18:36.245Z,565
2018-06-20T12:19:44.142Z,566
2018-06-20T12:20:52.041Z,569
2018-06-20T12:22:00.101Z,567
2018-06-20T12:23:08.009Z,572
2018-06-20T12:24:15.356Z,569
2018-06-20T12:25:23.255Z,582
2018-06-20T12:26:31.157Z,588
2018-06-20T12:27:39.054Z,578
2018-06-20T12:28:46.960Z,570
2018-06-20T12:29:54.587Z,576
2018-06-20T12:31:02.485Z,576
2018-06-20T12:32:10.417Z,579
2018-06-20T12:33:18.318Z,589
2018-06-20T12:34:26.224Z,594
2018-06-20T12:35:33.864Z,587
2018-06-20T12:36:41.640Z,580
2018-06-20T12:37:49.674Z,584
2018-06-20T12:38:57.573Z,588
2018-06-20T12:40:05.472Z,598
2018-06-20T12:41:13.375Z,597
2018-06-20T12:42:21.007Z,592
2018-06-20T12:43:28.905Z,598
2018-06-20T12:44:36.801Z,590
2018-06-20T12:45:44.424Z,585
2018-06-20T12:46:52.428Z,584
2018-06-20T12:48:00.348Z,593
2018-06-20T12:49:08.247Z,589
2018-06-20T12:50:16.162Z,583
2018-06-20T12:51:24.066Z,572
2018-06-20T12:52:31.738Z,575
2018-06-20T12:53:39.777Z,580
2018-06-20T12:54:47.714Z,576
2018-06-20T12:55:55.345Z,592
2018-06-20T12:57:03.250Z,596
2018-06-20T12:58:11.178Z,594
2018-06-20T12:59:19.080Z,591
2018-06-20T13:00:26.996Z,589
2018-06-20T13:01:34.653Z,582
2018-06-20T13:02:42.559Z,576
2018-06-20T13:03:50.456Z,579
2018-06-20T13:04:58.379Z,584
2018-06-20T13:06:06.282Z,583
2018-06-20T13:07:14.190Z,579
2018-06-20T13:08:22.085Z,575
2018-06-20T13:09:29.712Z,578
2018-06-20T13:10:37.337Z,583
2018-06-20T13:11:44.988Z,585
2018-06-20T13:12:52.883Z,582
2018-06-20T13:14:00.508Z,590
2018-06-20T13:15:08.413Z,592
2018-06-20T13:16:16.314Z,599
2018-06-20T13:17:23.936Z,590
2018-06-20T13:18:31.832Z,592
2018-06-20T13:19:39.176Z,596
2018-06-20T13:20:47.086Z,587
2018-06-20T13:21:54.718Z,586
2018-06-20T13:23:02.630Z,588
2018-06-20T13:24:10.543Z,585
2018-06-20T13:25:18.437Z,588
2018-06-20T13:26:26.348Z,589
2018-06-20T13:27:34.279Z,608
2018-06-20T13:28:42.183Z,598
2018-06-20T13:29:50.082Z,610
2018-06-20T13:30:57.988Z,596
2018-06-20T13:32:05.886Z,589
2018-06-20T13:33:13.785Z,590
2018-06-20T13:34:21.687Z,592
2018-06-20T13:35:29.581Z,587
2018-06-20T13:36:37.485Z,583
2018-06-20T13:37:45.118Z,586
2018-06-20T13:38:53.023Z,590
2018-06-20T13:40:00.920Z,588
2018-06-20T13:41:08.829Z,589
2018-06-20T13:42:16.722Z,592
2018-06-20T13:43:24.623Z,593
2018-06-20T13:44:32.520Z,593
2018-06-20T13:45:40.420Z,596
2018-06-20T13:46:48.046Z,587
2018-06-20T13:47:55.669Z,584
2018-06-20T13:49:03.576Z,577
2018-06-20T13:50:11.195Z,572
2018-06-20T13:51:19.096Z,579
2018-06-20T13:52:26.994Z,579
2018-06-20T13:53:34.891Z,580
2018-06-20T13:54:42.787Z,586
2018-06-20T13:55:50.686Z,582
2018-06-20T13:56:58.587Z,582
2018-06-20T13:58:06.484Z,586
2018-06-20T13:59:14.500Z,589
2018-06-20T14:00:22.426Z,581
2018-06-20T14:01:30.328Z,586
2018-06-20T14:02:37.954Z,587
2018-06-20T14:03:45.906Z,589
2018-06-20T14:04:53.798Z,587
2018-06-20T14:06:01.695Z,589
2018-06-20T14:07:09.593Z,580
2018-06-20T14:08:17.494Z,571
2018-06-20T14:09:25.396Z,573
2018-06-20T14:10:33.303Z,577
2018-06-20T14:11:41.213Z,572
2018-06-20T14:12:49.102Z,567
2018-06-20T14:13:57.003Z,576
2018-06-20T14:15:04.905Z,587
2018-06-20T14:16:12.805Z,592
2018-06-20T14:17:20.702Z,586
2018-06-20T14:18:28.604Z,599
2018-06-20T14:19:36.509Z,615
2018-06-20T14:20:44.411Z,620
2018-06-20T14:21:52.308Z,608
2018-06-20T14:23:00.215Z,595
2018-06-20T14:24:08.114Z,589
2018-06-20T14:25:16.015Z,581
2018-06-20T14:26:23.915Z,573
2018-06-20T14:27:31.811Z,571
2018-06-20T14:28:39.717Z,572
2018-06-20T14:29:47.794Z,581
2018-06-20T14:30:56.097Z,587
2018-06-20T14:32:04.002Z,586
2018-06-20T14:33:11.900Z,590
2018-06-20T14:34:19.798Z,589
2018-06-20T14:35:27.697Z,592
2018-06-20T14:36:35.604Z,589
2018-06-20T14:37:43.507Z,583
2018-06-20T14:38:51.690Z,587
2018-06-20T14:39:59.617Z,592
2018-06-20T14:41:07.530Z,599
2018-06-20T14:42:15.436Z,586
2018-06-20T14:43:23.349Z,583
2018-06-20T14:44:31.245Z,587
2018-06-20T14:45:39.147Z,588
2018-06-20T14:46:47.044Z,592
2018-06-20T14:47:54.945Z,586
2018-06-20T14:49:02.843Z,582
2018-06-20T14:50:10.751Z,575
2018-06-20T14:51:18.659Z,577
2018-06-20T14:52:26.557Z,583
2018-06-20T14:53:34.458Z,586
2018-06-20T14:54:42.371Z,590
2018-06-20T14:55:50.273Z,584
2018-06-20T14:56:58.190Z,587
2018-06-20T14:58:06.091Z,589
2018-06-20T14:59:13.987Z,585
2018-06-20T15:00:21.887Z,580
2018-06-20T15:01:29.790Z,576
2018-06-20T15:02:37.433Z,577
2018-06-20T15:03:45.336Z,578
2018-06-20T15:04:53.239Z,581
2018-06-20T15:06:01.139Z,592
2018-06-20T15:07:09.058Z,587
2018-06-20T15:08:16.960Z,589
2018-06-20T15:09:24.593Z,590
2018-06-20T15:10:32.505Z,595
2018-06-20T15:11:40.406Z,587
2018-06-20T15:12:48.305Z,582
2018-06-20T15:13:56.214Z,583
2018-06-20T15:15:04.114Z,589
2018-06-20T15:16:12.016Z,593
2018-06-20T15:17:19.937Z,588
2018-06-20T15:18:27.836Z,607
2018-06-20T15:19:35.739Z,622
2018-06-20T15:20:43.640Z,618
2018-06-20T15:21:51.586Z,622
2018-06-20T15:22:59.480Z,605
2018-06-20T15:24:07.384Z,597
2018-06-20T15:25:15.286Z,595
2018-06-20T15:26:23.192Z,590
2018-06-20T15:27:31.093Z,589
2018-06-20T15:28:38.998Z,586
2018-06-20T15:29:46.908Z,590
2018-06-20T15:30:54.808Z,595
2018-06-20T15:32:02.732Z,598
2018-06-20T15:33:10.638Z,594
2018-06-20T15:34:18.538Z,589
2018-06-20T15:35:26.577Z,589